Time,TemperatureF,DewpointF,PressureIn,WindDirection,WindDirectionDegrees,WindSpeedMPH,WindSpeedGustMPH,Humidity,HourlyPrecipIn,Conditions,Clouds,dailyrainin,SoftwareType,DateUTC
2013-03-07 00:02:00,52.0,48.0,29.89,West,275,0.0,0.0,86,0.00,,,-99.99,,2013-03-07 08:02:00,
2013-03-07 00:11:00,52.0,48.0,29.89,West,275,0.0,0.0,86,0.00,,,-99.99,,2013-03-07 08:11:00,
2013-03-07 00:32:00,52.0,48.0,29.89,West,275,0.0,0.0,86,0.00,,,-99.99,,2013-03-07 08:32:00,
2013-03-07 00:43:00,52.0,48.0,29.89,West,275,0.0,0.0,86,0.00,,,-99.99,,2013-03-07 08:43:00,
2013-03-07 00:52:00,53.0,49.0,29.89,West,275,0.0,0.0,86,0.00,,,-99.99,,2013-03-07 08:52:00,
2013-03-07 01:02:00,53.0,49.0,29.89,West,275,0.0,0.0,86,0.00,,,-99.99,,2013-03-07 09:02:00,
2013-03-07 01:11:00,53.0,49.0,29.89,West,275,0.0,0.0,86,0.00,,,-99.99,,2013-03-07 09:11:00,
2013-03-07 01:21:00,53.0,49.0,29.89,West,275,0.0,0.0,86,0.00,,,-99.99,,2013-03-07 09:21:00,
2013-03-07 01:53:00,52.0,48.0,29.88,West,275,0.0,0.0,86,0.00,,,-99.99,,2013-03-07 09:53:00,
2013-03-07 02:02:00,52.0,48.0,29.88,West,275,0.0,0.0,86,0.00,,,-99.99,,2013-03-07 10:02:00,
2013-03-07 02:12:00,52.0,48.0,29.88,West,275,0.0,0.0,86,0.00,,,-99.99,,2013-03-07 10:12:00,
2013-03-07 02:21:00,52.0,48.0,29.88,West,275,0.0,1.0,86,0.00,,,-99.99,,2013-03-07 10:21:00,
2013-03-07 02:42:00,52.0,48.0,29.88,West,275,0.0,1.0,86,0.00,,,-99.99,,2013-03-07 10:42:00,
2013-03-07 02:52:00,52.0,48.0,29.88,West,275,0.0,0.0,86,0.00,,,-99.99,,2013-03-07 10:52:00,
2013-03-07 03:02:00,52.0,48.0,29.88,West,275,0.0,0.0,86,0.00,,,-99.99,,2013-03-07 11:02:00,
2013-03-07 03:11:00,52.0,48.0,29.88,West,275,0.0,0.0,86,0.00,,,-99.99,,2013-03-07 11:11:00,
2013-03-07 03:22:00,52.0,48.0,29.87,West,275,0.0,0.0,86,0.00,,,-99.99,,2013-03-07 11:22:00,
2013-03-07 03:33:00,52.0,48.0,29.87,West,275,0.0,0.0,86,0.00,,,-99.99,,2013-03-07 11:33:00,
2013-03-07 03:42:00,52.0,48.0,29.87,West,275,0.0,0.0,86,0.00,,,-99.99,,2013-03-07 11:42:00,
2013-03-07 03:52:00,52.0,48.0,29.86,West,275,0.0,0.0,86,0.00,,,-99.99,,2013-03-07 11:52:00,
2013-03-07 04:02:00,52.0,48.0,29.86,West,275,0.0,0.0,86,0.00,,,-99.99,,2013-03-07 12:02:00,
2013-03-07 04:11:00,52.0,48.0,29.86,West,275,0.0,0.0,86,0.00,,,-99.99,,2013-03-07 12:11:00,
2013-03-07 04:21:00,52.0,48.0,29.86,West,275,0.0,0.0,86,0.00,,,-99.99,,2013-03-07 12:21:00,
2013-03-07 04:33:00,52.0,48.0,29.86,West,275,0.0,0.0,86,0.00,,,-99.99,,2013-03-07 12:33:00,
2013-03-07 04:42:00,52.0,48.0,29.86,West,275,0.0,0.0,86,0.00,,,-99.99,,2013-03-07 12:42:00,
2013-03-07 04:51:00,51.0,47.0,29.86,West,275,0.0,2.0,87,0.00,,,-99.99,,2013-03-07 12:51:00,
2013-03-07 05:02:00,51.0,47.0,29.86,West,275,0.0,2.0,87,0.00,,,-99.99,,2013-03-07 13:02:00,
2013-03-07 05:12:00,51.0,47.0,29.86,West,275,0.0,2.0,87,0.00,,,-99.99,,2013-03-07 13:12:00,
2013-03-07 05:22:00,51.0,47.0,29.86,NNW,328,0.0,2.0,87,0.00,,,-99.99,,2013-03-07 13:22:00,
2013-03-07 05:32:00,51.0,47.0,29.86,NNW,328,0.0,2.0,87,0.00,,,-99.99,,2013-03-07 13:32:00,
2013-03-07 05:42:00,51.0,47.0,29.86,NNW,328,0.0,2.0,87,0.00,,,-99.99,,2013-03-07 13:42:00,
2013-03-07 05:52:00,51.0,47.0,29.85,NNW,328,0.0,0.0,87,0.00,,,-99.99,,2013-03-07 13:52:00,
2013-03-07 06:01:00,51.0,47.0,29.85,NNW,328,0.0,0.0,87,0.00,,,-99.99,,2013-03-07 14:01:00,
2013-03-07 06:11:00,51.0,47.0,29.85,NNW,328,0.0,0.0,87,0.00,,,-99.99,,2013-03-07 14:11:00,
2013-03-07 06:21:00,51.0,47.0,29.86,NNW,328,0.0,1.0,87,0.00,,,-99.99,,2013-03-07 14:21:00,
2013-03-07 06:32:00,51.0,47.0,29.86,NNW,328,0.0,1.0,87,0.00,,,-99.99,,2013-03-07 14:32:00,
2013-03-07 06:42:00,51.0,47.0,29.86,NNW,328,0.0,1.0,87,0.00,,,-99.99,,2013-03-07 14:42:00,
2013-03-07 06:52:00,51.0,47.0,29.86,NNW,328,0.0,1.0,87,0.00,,,-99.99,,2013-03-07 14:52:00,
2013-03-07 07:22:00,50.0,47.0,29.86,NNW,328,0.0,0.0,88,0.00,,,-99.99,,2013-03-07 15:22:00,
2013-03-07 07:32:00,50.0,47.0,29.86,NNW,328,0.0,0.0,88,0.00,,,-99.99,,2013-03-07 15:32:00,
2013-03-07 07:42:00,50.0,47.0,29.86,NNW,328,0.0,0.0,88,0.00,,,-99.99,,2013-03-07 15:42:00,
2013-03-07 07:52:00,51.0,48.0,29.87,NNW,328,0.0,0.0,88,0.00,,,-99.99,,2013-03-07 15:52:00,
2013-03-07 08:01:00,51.0,48.0,29.87,NNW,328,0.0,0.0,88,0.00,,,-99.99,,2013-03-07 16:01:00,
2013-03-07 08:21:00,52.0,48.0,29.88,NNW,328,0.0,2.0,86,0.00,,,-99.99,,2013-03-07 16:21:00,
2013-03-07 08:32:00,52.0,48.0,29.88,NNW,328,0.0,2.0,86,0.00,,,-99.99,,2013-03-07 16:32:00,
2013-03-07 08:42:00,52.0,48.0,29.88,NNW,328,0.0,2.0,86,0.00,,,-99.99,,2013-03-07 16:42:00,
2013-03-07 08:52:00,52.0,47.0,29.88,WNW,295,1.0,3.0,83,0.00,,,-99.99,,2013-03-07 16:52:00,
2013-03-07 09:01:00,52.0,47.0,29.88,WNW,295,1.0,3.0,83,0.00,,,-99.99,,2013-03-07 17:01:00,
2013-03-07 09:11:00,52.0,47.0,29.88,WNW,295,1.0,3.0,83,0.00,,,-99.99,,2013-03-07 17:11:00,
2013-03-07 09:21:00,52.0,47.0,29.88,WNW,295,1.0,3.0,83,0.00,,,-99.99,,2013-03-07 17:21:00,
2013-03-07 10:52:00,58.0,45.0,29.86,NW,313,1.0,5.0,63,0.00,,,-99.99,,2013-03-07 18:52:00,
2013-03-07 11:02:00,58.0,45.0,29.86,NW,313,1.0,5.0,63,0.00,,,-99.99,,2013-03-07 19:02:00,
2013-03-07 11:11:00,59.0,46.0,29.87,South,174,1.0,7.0,63,0.00,,,-99.99,,2013-03-07 19:11:00,
2013-03-07 11:21:00,59.0,46.0,29.87,South,174,1.0,7.0,63,0.00,,,-99.99,,2013-03-07 19:21:00,
2013-03-07 11:33:00,59.0,46.0,29.87,South,174,1.0,7.0,63,0.00,,,-99.99,,2013-03-07 19:33:00,
2013-03-07 11:43:00,59.0,46.0,29.87,South,174,1.0,7.0,63,0.00,,,-99.99,,2013-03-07 19:43:00,
2013-03-07 11:52:00,59.0,46.0,29.87,South,174,1.0,7.0,63,0.00,,,-99.99,,2013-03-07 19:52:00,
2013-03-07 12:54:00,61.0,44.0,29.85,South,180,1.0,4.0,53,0.00,,,-99.99,,2013-03-07 20:54:00,
2013-03-07 13:02:00,61.0,44.0,29.85,South,180,1.0,4.0,53,0.00,,,-99.99,,2013-03-07 21:02:00,
2013-03-07 13:11:00,61.0,44.0,29.85,South,180,1.0,4.0,53,0.00,,,-99.99,,2013-03-07 21:11:00,
2013-03-07 13:21:00,61.0,44.0,29.84,SW,231,1.0,6.0,53,0.00,,,-99.99,,2013-03-07 21:21:00,
2013-03-07 13:32:00,61.0,44.0,29.84,SW,231,1.0,6.0,53,0.00,,,-99.99,,2013-03-07 21:32:00,
2013-03-07 13:42:00,61.0,44.0,29.84,SW,231,1.0,6.0,53,0.00,,,-99.99,,2013-03-07 21:42:00,
2013-03-07 13:52:00,61.0,44.0,29.84,SW,231,1.0,6.0,53,0.00,,,-99.99,,2013-03-07 21:52:00,
2013-03-07 14:54:00,61.0,41.0,29.81,WSW,239,1.0,6.0,48,0.00,,,-99.99,,2013-03-07 22:54:00,
2013-03-07 15:02:00,61.0,41.0,29.81,WSW,239,1.0,6.0,48,0.00,,,-99.99,,2013-03-07 23:02:00,
2013-03-07 15:12:00,61.0,41.0,29.81,WSW,239,1.0,6.0,48,0.00,,,-99.99,,2013-03-07 23:12:00,
2013-03-07 15:21:00,62.0,40.0,29.81,WSW,255,2.0,9.0,44,0.00,,,-99.99,,2013-03-07 23:21:00,
2013-03-07 15:32:00,62.0,40.0,29.81,WSW,255,2.0,9.0,44,0.00,,,-99.99,,2013-03-07 23:32:00,
2013-03-07 15:42:00,62.0,40.0,29.81,WSW,255,2.0,9.0,44,0.00,,,-99.99,,2013-03-07 23:42:00,
2013-03-07 15:52:00,62.0,40.0,29.81,WSW,255,2.0,9.0,44,0.00,,,-99.99,,2013-03-07 23:52:00,
2013-03-07 17:21:00,58.0,41.0,29.80,South,186,0.0,2.0,54,0.00,,,-99.99,,2013-03-08 01:21:00,
2013-03-07 17:32:00,58.0,41.0,29.80,South,186,0.0,2.0,54,0.00,,,-99.99,,2013-03-08 01:32:00,
2013-03-07 17:42:00,58.0,41.0,29.80,South,186,0.0,2.0,54,0.00,,,-99.99,,2013-03-08 01:42:00,
2013-03-07 17:51:00,57.0,42.0,29.80,SSW,192,0.0,2.0,57,0.00,,,-99.99,,2013-03-08 01:51:00,
2013-03-07 18:01:00,57.0,42.0,29.80,SSW,192,0.0,2.0,57,0.00,,,-99.99,,2013-03-08 02:01:00,
2013-03-07 18:11:00,57.0,42.0,29.80,SSW,192,0.0,2.0,57,0.00,,,-99.99,,2013-03-08 02:11:00,
2013-03-07 18:21:00,57.0,42.0,29.80,SSW,192,0.0,2.0,57,0.00,,,-99.99,,2013-03-08 02:21:00,
2013-03-07 18:52:00,56.0,43.0,29.79,WSW,254,0.0,3.0,61,0.00,,,-99.99,,2013-03-08 02:52:00,
2013-03-07 19:02:00,56.0,43.0,29.79,WSW,254,0.0,3.0,61,0.00,,,-99.99,,2013-03-08 03:02:00,
2013-03-07 19:11:00,56.0,43.0,29.79,WSW,254,0.0,3.0,61,0.00,,,-99.99,,2013-03-08 03:11:00,
2013-03-07 19:21:00,55.0,43.0,29.79,WSW,254,0.0,1.0,63,0.00,,,-99.99,,2013-03-08 03:21:00,
2013-03-07 19:32:00,55.0,43.0,29.79,WSW,254,0.0,1.0,63,0.00,,,-99.99,,2013-03-08 03:32:00,
2013-03-07 19:42:00,55.0,43.0,29.79,WSW,254,0.0,1.0,63,0.00,,,-99.99,,2013-03-08 03:42:00,
2013-03-07 19:52:00,54.0,44.0,29.79,West,262,0.0,4.0,69,0.00,,,-99.99,,2013-03-08 03:52:00,
2013-03-07 20:01:00,54.0,44.0,29.79,West,262,0.0,4.0,69,0.00,,,-99.99,,2013-03-08 04:01:00,
2013-03-07 20:11:00,54.0,44.0,29.79,West,262,0.0,4.0,69,0.00,,,-99.99,,2013-03-08 04:11:00,
2013-03-07 20:21:00,54.0,44.0,29.79,West,262,0.0,4.0,69,0.00,,,-99.99,,2013-03-08 04:21:00,
2013-03-07 20:52:00,52.0,47.0,29.79,West,262,0.0,1.0,82,0.00,,,-99.99,,2013-03-08 04:52:00,
2013-03-07 21:01:00,52.0,47.0,29.79,West,262,0.0,1.0,82,0.00,,,-99.99,,2013-03-08 05:01:00,
2013-03-07 21:12:00,52.0,47.0,29.79,West,262,0.0,1.0,82,0.00,,,-99.99,,2013-03-08 05:12:00,
2013-03-07 21:22:00,51.0,47.0,29.78,NE,38,1.0,6.0,85,0.00,,,-99.99,,2013-03-08 05:22:00,
2013-03-07 21:32:00,51.0,47.0,29.78,NE,38,1.0,6.0,85,0.00,,,-99.99,,2013-03-08 05:32:00,
2013-03-07 21:42:00,51.0,47.0,29.78,NE,38,1.0,6.0,85,0.00,,,-99.99,,2013-03-08 05:42:00,
2013-03-07 21:52:00,50.0,46.0,29.78,ENE,67,0.0,4.0,86,0.00,,,-99.99,,2013-03-08 05:52:00,
2013-03-07 22:01:00,50.0,46.0,29.78,ENE,67,0.0,4.0,86,0.00,,,-99.99,,2013-03-08 06:01:00,
2013-03-07 22:11:00,50.0,46.0,29.78,ENE,67,0.0,4.0,86,0.00,,,-99.99,,2013-03-08 06:11:00,
2013-03-07 22:21:00,50.0,46.0,29.78,ENE,67,0.0,4.0,86,0.00,,,-99.99,,2013-03-08 06:21:00,
2013-03-07 23:52:00,49.0,46.0,29.72,NNE,30,2.0,6.0,88,0.00,,,-99.99,,2013-03-08 07:52:00,